Time;durP1;ratioP1;P1;durP2;ratioP2;P2;SDS_P1;SDS_P2;PMS_P1;PMS_P2;Temp;Humidity;BMP_temperature;BMP_pressure;BME280_temperature;BME280_humidity;BME280_pressure;Samples;Min_cycle;Max_cycle;Signal;HPM_P1;HPM_P2
2022/01/11 00:00:10;;;;;;;8.15;5.45;;;0.80;99.90;;;;;;5079314;28;20205;-61
2022/01/11 00:02:41;;;;;;;7.18;4.82;;;0.80;99.90;;;;;;5093276;28;20200;-62
2022/01/11 00:05:08;;;;;;;6.53;4.82;;;0.80;99.90;;;;;;5102788;28;20224;-63
2022/01/11 00:07:43;;;;;;;5.15;4.28;;;0.70;99.90;;;;;;5107957;28;20200;-62
2022/01/11 00:10:13;;;;;;;6.82;3.72;;;0.70;99.90;;;;;;5096239;28;20381;-63
2022/01/11 00:12:40;;;;;;;8.65;5.70;;;0.70;99.90;;;;;;5096348;28;20207;-62
2022/01/11 00:15:07;;;;;;;4.72;3.88;;;0.70;99.90;;;;;;5101666;28;20203;-64
2022/01/11 00:17:34;;;;;;;7.22;5.80;;;0.70;99.90;;;;;;5096640;28;20200;-62
2022/01/11 00:20:01;;;;;;;12.48;5.38;;;0.70;99.90;;;;;;5097268;28;20245;-62
2022/01/11 00:22:32;;;;;;;7.45;4.93;;;0.70;99.90;;;;;;5094522;28;20224;-64
2022/01/11 00:25:00;;;;;;;7.97;5.30;;;0.70;99.90;;;;;;5093180;28;20200;-62
2022/01/11 00:27:27;;;;;;;7.20;6.55;;;0.80;99.90;;;;;;5090848;28;20204;-64
2022/01/11 00:29:56;;;;;;;7.50;6.05;;;0.80;99.90;;;;;;5094266;28;20770;-61
2022/01/11 00:32:33;;;;;;;6.95;4.80;;;0.80;99.90;;;;;;5091618;28;20598;-62
2022/01/11 00:34:59;;;;;;;12.70;6.15;;;0.80;99.90;;;;;;5092770;28;20212;-64
2022/01/11 00:37:27;;;;;;;9.38;5.72;;;0.70;99.90;;;;;;5095408;28;20290;-62
2022/01/11 00:39:54;;;;;;;11.60;6.35;;;0.70;99.90;;;;;;5092704;28;20589;-61
2022/01/11 00:42:22;;;;;;;7.13;4.88;;;0.70;99.90;;;;;;5088899;28;20225;-64
2022/01/11 00:44:49;;;;;;;7.78;5.78;;;0.80;99.90;;;;;;5087435;28;20680;-62
2022/01/11 00:47:16;;;;;;;9.55;6.65;;;0.70;99.90;;;;;;5098159;28;20781;-62
2022/01/11 00:49:43;;;;;;;14.80;7.40;;;0.80;99.90;;;;;;5099831;28;20242;-61
2022/01/11 00:52:10;;;;;;;8.60;7.68;;;0.80;99.90;;;;;;5098162;28;20231;-62
2022/01/11 00:54:36;;;;;;;9.02;7.13;;;0.80;99.90;;;;;;5107455;28;20200;-63
2022/01/11 00:57:03;;;;;;;9.10;5.95;;;0.80;99.90;;;;;;5089431;28;20254;-64
2022/01/11 00:59:32;;;;;;;3.90;3.40;;;0.80;99.90;;;;;;5083788;28;20667;-63
2022/01/11 01:01:58;;;;;;;9.80;6.38;;;0.80;99.90;;;;;;5084630;28;20232;-63
2022/01/11 01:04:25;;;;;;;7.43;4.75;;;0.70;99.90;;;;;;5091554;28;20276;-61
2022/01/11 01:06:52;;;;;;;10.98;6.35;;;0.70;99.90;;;;;;5112090;28;20272;-63
2022/01/11 01:09:18;;;;;;;9.98;7.28;;;0.70;99.90;;;;;;5101715;28;20204;-64
2022/01/11 01:11:46;;;;;;;14.75;6.60;;;0.70;99.90;;;;;;5094704;28;20266;-64
2022/01/11 01:14:14;;;;;;;7.85;5.60;;;0.70;99.90;;;;;;5091575;28;20197;-62
2022/01/11 01:16:42;;;;;;;10.90;6.82;;;0.70;99.90;;;;;;5091674;28;20197;-62
2022/01/11 01:19:08;;;;;;;8.98;5.72;;;0.70;99.90;;;;;;5090864;28;20255;-62
2022/01/11 01:21:38;;;;;;;6.00;5.40;;;0.60;99.90;;;;;;5091375;28;20254;-61
2022/01/11 01:24:06;;;;;;;9.07;5.13;;;0.60;99.90;;;;;;5090931;28;20201;-62
2022/01/11 01:26:33;;;;;;;9.02;6.30;;;0.60;99.90;;;;;;5091057;28;20216;-64
2022/01/11 01:29:00;;;;;;;7.75;5.60;;;0.60;99.90;;;;;;5090654;28;20200;-63
2022/01/11 01:31:27;;;;;;;9.90;6.65;;;0.50;99.90;;;;;;5090656;28;20263;-62
2022/01/11 01:33:56;;;;;;;5.75;5.15;;;0.50;99.90;;;;;;5099369;28;20200;-63
2022/01/11 01:36:23;;;;;;;6.35;5.03;;;0.50;99.90;;;;;;5100304;28;20196;-62
2022/01/11 01:38:51;;;;;;;8.43;6.70;;;0.50;99.90;;;;;;5093458;28;20593;-62
2022/01/11 01:41:19;;;;;;;7.63;5.82;;;0.40;99.90;;;;;;5090694;28;20216;-63
2022/01/11 01:43:49;;;;;;;10.18;7.80;;;0.40;99.90;;;;;;5089727;28;20713;-62
2022/01/11 01:46:16;;;;;;;6.57;4.45;;;0.40;99.90;;;;;;5090739;28;20221;-61
2022/01/11 01:48:44;;;;;;;8.70;6.38;;;0.30;99.90;;;;;;5090098;28;20196;-63
2022/01/11 01:51:12;;;;;;;13.30;7.60;;;0.30;99.90;;;;;;5090305;28;20232;-64
2022/01/11 01:53:42;;;;;;;9.57;3.83;;;0.30;99.90;;;;;;5090358;28;20205;-63
2022/01/11 01:56:09;;;;;;;5.78;4.18;;;0.30;99.90;;;;;;5088931;28;20200;-62
2022/01/11 01:58:37;;;;;;;7.13;5.72;;;0.30;99.90;;;;;;5085716;28;20680;-62
2022/01/11 02:01:05;;;;;;;4.88;4.35;;;0.30;99.90;;;;;;5084776;28;20230;-61
2022/01/11 02:03:37;;;;;;;6.03;3.90;;;0.30;99.90;;;;;;5088259;28;20211;-64
2022/01/11 02:06:05;;;;;;;9.73;5.07;;;0.20;99.90;;;;;;5086832;28;20888;-63
2022/01/11 02:08:33;;;;;;;7.38;5.50;;;0.20;99.90;;;;;;5076620;28;20353;-64
2022/01/11 02:11:00;;;;;;;5.90;5.35;;;0.20;99.90;;;;;;5087733;28;20216;-64
2022/01/11 02:13:27;;;;;;;13.15;6.63;;;0.20;99.90;;;;;;5085333;28;20266;-61
2022/01/11 02:15:54;;;;;;;5.53;5.03;;;0.30;99.90;;;;;;5084804;28;20196;-61
2022/01/11 02:18:25;;;;;;;5.85;4.80;;;0.30;99.90;;;;;;5085492;28;20197;-61
2022/01/11 02:20:55;;;;;;;5.68;5.07;;;0.20;99.90;;;;;;5091975;28;20724;-63
2022/01/11 02:23:23;;;;;;;6.43;5.30;;;0.20;99.90;;;;;;5088274;28;20576;-62
2022/01/11 02:25:50;;;;;;;6.97;5.85;;;0.20;99.90;;;;;;5087629;28;20216;-62
2022/01/11 02:28:18;;;;;;;7.78;6.53;;;0.20;99.90;;;;;;5092614;28;20197;-63
2022/01/11 02:30:46;;;;;;;7.57;5.35;;;0.20;99.90;;;;;;5094571;28;20768;-63
2022/01/11 02:33:22;;;;;;;4.43;4.07;;;0.20;99.90;;;;;;5087283;28;20259;-64
2022/01/11 02:35:49;;;;;;;8.07;5.70;;;0.20;99.90;;;;;;5089998;28;20208;-63
2022/01/11 02:38:17;;;;;;;9.05;6.15;;;0.10;99.90;;;;;;5089320;28;20201;-63
2022/01/11 02:40:45;;;;;;;5.18;4.47;;;0.20;99.90;;;;;;5089660;28;20224;-62
2022/01/11 02:43:11;;;;;;;5.32;4.93;;;0.30;99.90;;;;;;5089424;28;20204;-63
2022/01/11 02:45:38;;;;;;;9.02;6.88;;;0.20;99.90;;;;;;5094060;28;20205;-62
2022/01/11 02:48:05;;;;;;;16.73;5.30;;;0.20;99.90;;;;;;5089580;28;20216;-62
2022/01/11 02:50:32;;;;;;;7.78;6.20;;;0.20;99.90;;;;;;5099641;28;20212;-65
2022/01/11 02:52:59;;;;;;;7.30;6.03;;;0.30;99.90;;;;;;5089086;28;20270;-63
2022/01/11 02:55:27;;;;;;;5.57;5.03;;;0.30;99.90;;;;;;5091195;28;20205;-63
2022/01/11 02:57:55;;;;;;;10.45;6.43;;;0.30;99.90;;;;;;5089494;28;20204;-63
2022/01/11 03:00:23;;;;;;;5.57;4.20;;;0.30;99.90;;;;;;5088667;28;20612;-63
2022/01/11 03:02:51;;;;;;;8.75;7.10;;;0.20;99.90;;;;;;5088628;28;20197;-63
2022/01/11 03:05:17;;;;;;;6.32;5.47;;;0.20;99.90;;;;;;5086343;28;20669;-62
2022/01/11 03:07:44;;;;;;;6.72;5.97;;;0.20;99.90;;;;;;5090860;28;20680;-63
2022/01/11 03:10:21;;;;;;;6.15;5.65;;;0.20;99.90;;;;;;5088984;28;20204;-62
2022/01/11 03:12:50;;;;;;;6.95;6.15;;;0.20;99.90;;;;;;5089370;28;20265;-63
2022/01/11 03:15:17;;;;;;;5.20;4.80;;;0.30;99.90;;;;;;5098375;28;20253;-62
2022/01/11 03:17:43;;;;;;;12.65;6.38;;;0.30;99.90;;;;;;5088109;28;20619;-63
2022/01/11 03:20:10;;;;;;;10.05;6.25;;;0.30;99.90;;;;;;5088831;28;20196;-62
2022/01/11 03:22:37;;;;;;;8.18;5.25;;;0.30;99.90;;;;;;5088811;28;20215;-64
2022/01/11 03:25:06;;;;;;;7.90;5.63;;;0.40;99.90;;;;;;5089221;28;20241;-62
2022/01/11 03:27:33;;;;;;;8.32;5.15;;;0.30;99.90;;;;;;5089199;28;21436;-64
2022/01/11 03:30:01;;;;;;;7.30;3.83;;;0.30;99.90;;;;;;5088703;28;20261;-62
2022/01/11 03:32:28;;;;;;;7.57;6.88;;;0.20;99.90;;;;;;5088303;28;20323;-62
2022/01/11 03:34:54;;;;;;;10.23;5.50;;;0.20;99.90;;;;;;5089343;28;20262;-62
2022/01/11 03:37:21;;;;;;;12.25;7.20;;;0.20;99.90;;;;;;5091544;28;20715;-61
2022/01/11 03:39:48;;;;;;;8.50;5.07;;;0.10;99.90;;;;;;5089797;28;20197;-63
2022/01/11 03:42:15;;;;;;;11.63;7.72;;;0.10;99.90;;;;;;5088875;28;20285;-63
2022/01/11 03:44:42;;;;;;;7.85;6.47;;;0.20;99.90;;;;;;5089073;28;20196;-63
2022/01/11 03:47:10;;;;;;;7.47;5.93;;;0.20;99.90;;;;;;5088272;28;20228;-63
2022/01/11 03:49:37;;;;;;;8.13;5.30;;;0.20;99.90;;;;;;5088424;28;20205;-62
2022/01/11 03:52:05;;;;;;;8.45;6.45;;;0.20;99.90;;;;;;5088412;28;20270;-63
2022/01/11 03:54:44;;;;;;;12.38;6.40;;;0.10;99.90;;;;;;5091228;28;20224;-64
2022/01/11 03:57:10;;;;;;;8.05;4.68;;;0.10;99.90;;;;;;5088819;28;20719;-64
2022/01/11 03:59:37;;;;;;;5.32;4.60;;;0.10;99.90;;;;;;5088572;28;20250;-64
2022/01/11 04:02:04;;;;;;;11.68;6.65;;;0.20;99.90;;;;;;5088312;28;20220;-64
2022/01/11 04:04:32;;;;;;;9.90;6.55;;;0.20;99.90;;;;;;5099285;28;20208;-63
2022/01/11 04:07:00;;;;;;;9.50;8.55;;;0.20;99.90;;;;;;5088566;28;20274;-63
2022/01/11 04:09:27;;;;;;;8.50;5.53;;;0.20;99.90;;;;;;5083156;28;20597;-62
2022/01/11 04:11:54;;;;;;;6.93;6.30;;;0.20;99.90;;;;;;5098659;28;20216;-64
2022/01/11 04:14:21;;;;;;;8.73;5.85;;;0.20;99.90;;;;;;5089046;28;20208;-64
2022/01/11 04:16:48;;;;;;;7.68;6.68;;;0.20;99.90;;;;;;5097518;28;20275;-62
2022/01/11 04:19:15;;;;;;;5.93;4.60;;;0.10;99.90;;;;;;5088475;28;20274;-63
2022/01/11 04:21:43;;;;;;;9.60;7.80;;;0.10;99.90;;;;;;5087659;28;20665;-62
2022/01/11 04:24:11;;;;;;;7.18;5.72;;;0.10;99.90;;;;;;5088472;28;20874;-62
2022/01/11 04:26:38;;;;;;;8.45;5.65;;;0.10;99.90;;;;;;5092473;28;20750;-62
2022/01/11 04:29:05;;;;;;;10.80;5.25;;;0.10;99.90;;;;;;5090405;28;20670;-63
2022/01/11 04:31:32;;;;;;;6.30;5.60;;;0.10;99.90;;;;;;5093727;28;20246;-62
2022/01/11 04:33:59;;;;;;;9.68;7.35;;;0.10;99.90;;;;;;5090894;28;20254;-62
2022/01/11 04:36:25;;;;;;;9.00;3.75;;;0.10;99.90;;;;;;5091568;28;20205;-63
2022/01/11 04:38:53;;;;;;;9.65;6.30;;;0.10;99.90;;;;;;5094541;28;20207;-62
2022/01/11 04:41:20;;;;;;;9.32;6.78;;;0.10;99.90;;;;;;5088974;28;20224;-62
2022/01/11 04:43:47;;;;;;;9.00;6.38;;;0.20;99.90;;;;;;5092162;28;20250;-63
2022/01/11 04:46:18;;;;;;;5.20;3.83;;;0.10;99.90;;;;;;5091976;28;20258;-65
2022/01/11 04:48:45;;;;;;;10.73;5.13;;;0.10;99.90;;;;;;5091292;28;20284;-63
2022/01/11 04:51:11;;;;;;;18.23;5.30;;;0.10;99.90;;;;;;5091950;28;20740;-65
2022/01/11 04:53:38;;;;;;;9.55;5.57;;;0.00;99.90;;;;;;5092478;28;20262;-63
2022/01/11 04:56:07;;;;;;;14.73;6.82;;;0.00;99.90;;;;;;5091958;28;20273;-63
2022/01/11 04:58:34;;;;;;;10.07;6.13;;;0.00;99.90;;;;;;5091996;28;20666;-63
2022/01/11 05:01:01;;;;;;;11.98;6.25;;;0.00;99.90;;;;;;5101260;28;20798;-63
2022/01/11 05:03:28;;;;;;;9.93;6.60;;;0.00;99.90;;;;;;5091358;28;20201;-64
2022/01/11 05:05:54;;;;;;;10.68;6.18;;;0.00;99.90;;;;;;5090529;28;20251;-64
2022/01/11 05:08:21;;;;;;;6.15;5.35;;;0.00;99.90;;;;;;5089195;28;20253;-64
2022/01/11 05:10:48;;;;;;;8.95;6.20;;;-0.10;99.90;;;;;;5077529;28;20216;-64
2022/01/11 05:13:18;;;;;;;6.55;4.90;;;-0.10;99.90;;;;;;5074677;28;20707;-63
2022/01/11 05:15:45;;;;;;;11.68;7.18;;;-0.10;99.90;;;;;;5083564;28;20854;-64
2022/01/11 05:18:13;;;;;;;13.02;7.65;;;-0.10;99.90;;;;;;5085553;28;20897;-64
2022/01/11 05:20:41;;;;;;;7.13;5.75;;;0.00;99.90;;;;;;5088748;28;20962;-64
2022/01/11 05:23:10;;;;;;;5.18;4.68;;;-0.10;99.90;;;;;;5085962;28;20200;-64
2022/01/11 05:25:37;;;;;;;5.78;4.05;;;-0.10;99.90;;;;;;5090875;28;20197;-64
2022/01/11 05:28:04;;;;;;;7.80;7.05;;;-0.20;99.90;;;;;;5102824;28;20223;-64
2022/01/11 05:30:32;;;;;;;8.15;6.53;;;-0.20;99.90;;;;;;5093002;28;20795;-64
2022/01/11 05:32:59;;;;;;;6.07;5.47;;;-0.20;99.90;;;;;;5089436;28;20784;-64
2022/01/11 05:35:27;;;;;;;7.03;4.28;;;-0.10;99.90;;;;;;5090640;28;20242;-64
2022/01/11 05:37:54;;;;;;;6.82;6.13;;;-0.20;99.90;;;;;;5091487;28;20200;-63
2022/01/11 05:40:21;;;;;;;22.88;5.32;;;-0.20;99.90;;;;;;5091846;28;20278;-64
2022/01/11 05:42:49;;;;;;;7.55;3.95;;;-0.20;99.90;;;;;;5092393;28;20719;-64
2022/01/11 05:45:17;;;;;;;11.55;8.18;;;-0.20;99.90;;;;;;5090992;28;20201;-64
2022/01/11 05:47:47;;;;;;;16.55;6.80;;;-0.30;99.90;;;;;;5090496;28;20746;-64
2022/01/11 05:50:14;;;;;;;8.20;7.50;;;-0.30;99.90;;;;;;5089037;28;20208;-64
2022/01/11 05:52:42;;;;;;;11.18;6.60;;;-0.30;99.90;;;;;;5090607;28;20254;-64
2022/01/11 05:55:11;;;;;;;9.93;8.77;;;-0.40;99.90;;;;;;5088104;28;20330;-64
2022/01/11 05:57:38;;;;;;;8.88;4.82;;;-0.40;99.90;;;;;;5090556;28;20200;-64
2022/01/11 06:00:07;;;;;;;10.00;7.85;;;-0.40;99.90;;;;;;5089525;28;20213;-64
2022/01/11 06:02:34;;;;;;;8.50;5.00;;;-0.40;99.90;;;;;;5086966;28;20666;-65
2022/01/11 06:05:02;;;;;;;8.30;6.63;;;-0.40;99.90;;;;;;5089157;28;20197;-76
2022/01/11 06:07:29;;;;;;;7.75;6.80;;;-0.30;99.90;;;;;;5092010;28;20221;-67
2022/01/11 06:09:56;;;;;;;10.82;8.32;;;-0.30;99.90;;;;;;5093453;28;20262;-66
2022/01/11 06:12:22;;;;;;;6.22;5.20;;;-0.30;99.90;;;;;;5090449;28;20274;-63
2022/01/11 06:14:49;;;;;;;8.88;5.28;;;-0.30;99.90;;;;;;5089739;28;20197;-63
2022/01/11 06:17:15;;;;;;;4.97;4.03;;;-0.30;99.90;;;;;;5100757;28;20258;-63
2022/01/11 06:19:42;;;;;;;11.38;8.63;;;-0.30;99.90;;;;;;5093094;28;20200;-64
2022/01/11 06:22:10;;;;;;;9.15;6.63;;;-0.30;99.90;;;;;;5093852;28;20228;-64
2022/01/11 06:24:37;;;;;;;7.00;5.45;;;-0.30;99.90;;;;;;5096630;28;20201;-64
2022/01/11 06:27:04;;;;;;;9.90;5.05;;;-0.30;99.90;;;;;;5089445;28;20385;-64
2022/01/11 06:29:30;;;;;;;6.70;4.18;;;-0.30;99.90;;;;;;5091108;28;20201;-62
2022/01/11 06:31:57;;;;;;;4.78;4.28;;;-0.40;99.90;;;;;;5102332;28;20216;-62
2022/01/11 06:34:24;;;;;;;8.23;7.05;;;-0.30;99.90;;;;;;5090161;28;20269;-62
2022/01/11 06:36:50;;;;;;;7.65;7.00;;;-0.30;99.90;;;;;;5098511;28;20223;-63
2022/01/11 06:39:18;;;;;;;7.40;6.32;;;-0.30;99.90;;;;;;5091137;28;20258;-64
2022/01/11 06:41:45;;;;;;;9.20;5.60;;;-0.40;99.90;;;;;;5089509;28;20229;-64
2022/01/11 06:44:12;;;;;;;7.95;5.70;;;-0.40;99.90;;;;;;5089350;28;20273;-64
2022/01/11 06:46:38;;;;;;;7.45;5.50;;;-0.40;99.90;;;;;;5096253;28;20208;-63
2022/01/11 06:49:05;;;;;;;8.30;5.65;;;-0.40;99.90;;;;;;5093558;28;20236;-64
2022/01/11 06:51:32;;;;;;;8.75;5.93;;;-0.40;99.90;;;;;;5100509;28;20363;-63
2022/01/11 06:53:59;;;;;;;6.97;4.03;;;-0.40;99.90;;;;;;5089880;28;20204;-62
2022/01/11 06:56:27;;;;;;;8.05;7.18;;;-0.30;99.90;;;;;;5089263;28;20211;-64
2022/01/11 06:58:54;;;;;;;13.30;7.30;;;-0.30;99.90;;;;;;5092038;28;20681;-64
2022/01/11 07:01:21;;;;;;;10.30;6.68;;;-0.30;99.90;;;;;;5096715;28;20289;-64
2022/01/11 07:03:47;;;;;;;7.35;5.25;;;-0.30;99.90;;;;;;5089998;28;20201;-64
2022/01/11 07:06:14;;;;;;;5.85;5.20;;;-0.30;99.90;;;;;;5089539;28;20693;-64
2022/01/11 07:08:41;;;;;;;6.65;4.18;;;-0.30;99.90;;;;;;5099301;28;20273;-64
2022/01/11 07:11:07;;;;;;;5.65;3.58;;;-0.40;99.90;;;;;;5091458;28;20353;-62
2022/01/11 07:13:35;;;;;;;9.90;4.72;;;-0.40;99.90;;;;;;5089660;28;20760;-64
2022/01/11 07:16:02;;;;;;;10.60;6.57;;;-0.40;99.90;;;;;;5094142;28;20740;-63
2022/01/11 07:18:29;;;;;;;9.57;5.45;;;-0.50;99.90;;;;;;5092852;28;20736;-63
2022/01/11 07:20:55;;;;;;;7.18;4.00;;;-0.50;99.90;;;;;;5088565;28;20227;-64
2022/01/11 07:23:22;;;;;;;8.63;7.20;;;-0.50;99.90;;;;;;5089400;28;20208;-64
2022/01/11 07:25:49;;;;;;;11.27;5.78;;;-0.50;99.90;;;;;;5089686;28;20204;-64
2022/01/11 07:28:15;;;;;;;10.57;9.57;;;-0.50;99.90;;;;;;5089106;28;20236;-64
2022/01/11 07:30:44;;;;;;;6.70;5.32;;;-0.40;99.90;;;;;;5088515;28;20277;-63
2022/01/11 07:33:10;;;;;;;5.70;5.15;;;-0.40;99.90;;;;;;5090265;28;20208;-63
2022/01/11 07:35:37;;;;;;;16.77;7.03;;;-0.40;99.90;;;;;;5089053;28;20197;-62
2022/01/11 07:38:04;;;;;;;10.02;6.00;;;-0.40;99.90;;;;;;5099926;28;20196;-63
2022/01/11 07:40:30;;;;;;;10.35;5.28;;;-0.40;99.90;;;;;;5091007;28;20289;-63
2022/01/11 07:42:57;;;;;;;17.02;5.80;;;-0.40;99.90;;;;;;5096706;28;20254;-62
2022/01/11 07:45:24;;;;;;;8.80;5.47;;;-0.50;99.90;;;;;;5092375;28;20204;-64
2022/01/11 07:47:52;;;;;;;9.48;8.25;;;-0.50;99.90;;;;;;5090005;28;20253;-64
2022/01/11 07:50:18;;;;;;;9.23;7.22;;;-0.50;99.90;;;;;;5077550;28;20665;-64
2022/01/11 07:52:46;;;;;;;7.90;5.57;;;-0.50;99.90;;;;;;5086021;28;20204;-63
2022/01/11 07:55:13;;;;;;;6.47;5.95;;;-0.60;99.90;;;;;;5089075;28;20243;-64
2022/01/11 07:57:39;;;;;;;4.03;3.75;;;-0.60;99.90;;;;;;5089033;28;20204;-64
2022/01/11 08:00:08;;;;;;;10.10;6.38;;;-0.60;99.90;;;;;;5091534;28;20200;-64
2022/01/11 08:02:35;;;;;;;9.77;6.20;;;-0.60;99.90;;;;;;5093355;28;20205;-64
2022/01/11 08:05:04;;;;;;;7.60;6.60;;;-0.60;99.90;;;;;;5105323;28;20611;-64
2022/01/11 08:07:31;;;;;;;4.53;3.97;;;-0.70;99.90;;;;;;5088214;28;20197;-64
2022/01/11 08:09:57;;;;;;;11.57;6.63;;;-0.60;99.90;;;;;;5085963;28;20568;-62
2022/01/11 08:12:24;;;;;;;5.13;4.63;;;-0.60;99.90;;;;;;5096655;28;20282;-62
2022/01/11 08:14:51;;;;;;;4.78;4.38;;;-0.60;99.90;;;;;;5088913;28;20210;-64
2022/01/11 08:17:18;;;;;;;5.90;4.85;;;-0.60;99.90;;;;;;5088322;28;20542;-62
2022/01/11 08:19:46;;;;;;;17.15;7.65;;;-0.50;99.90;;;;;;5093704;28;20209;-63
2022/01/11 08:22:14;;;;;;;4.57;4.25;;;-0.50;99.90;;;;;;5082642;28;20235;-62
2022/01/11 08:24:41;;;;;;;6.10;4.68;;;-0.50;99.90;;;;;;5081917;28;20198;-62
2022/01/11 08:27:08;;;;;;;8.75;5.18;;;-0.40;99.90;;;;;;5098321;28;20282;-63
2022/01/11 08:29:35;;;;;;;8.43;5.47;;;-0.30;99.90;;;;;;5092420;28;20767;-63
2022/01/11 08:32:01;;;;;;;5.65;5.20;;;-0.30;99.90;;;;;;5092948;28;20216;-63
2022/01/11 08:34:28;;;;;;;11.75;3.95;;;-0.30;99.90;;;;;;5088340;28;20258;-63
2022/01/11 08:36:55;;;;;;;5.25;4.75;;;-0.30;99.90;;;;;;5094468;28;20205;-62
2022/01/11 08:39:23;;;;;;;6.55;5.65;;;-0.20;99.90;;;;;;5083385;28;20189;-62
2022/01/11 08:41:50;;;;;;;7.45;5.20;;;-0.20;99.90;;;;;;5088725;28;20644;-64
2022/01/11 08:44:19;;;;;;;8.32;5.28;;;-0.30;99.90;;;;;;5089008;28;20250;-64
2022/01/11 08:46:47;;;;;;;5.50;5.00;;;-0.30;99.90;;;;;;5088953;28;20212;-65
2022/01/11 08:49:14;;;;;;;4.97;4.25;;;-0.30;99.90;;;;;;5091366;28;20225;-64
2022/01/11 08:51:41;;;;;;;6.82;6.32;;;-0.30;99.90;;;;;;5089964;28;20361;-63
2022/01/11 08:54:11;;;;;;;12.05;6.03;;;-0.30;99.90;;;;;;5088400;28;20241;-64
2022/01/11 08:56:39;;;;;;;14.30;7.20;;;-0.30;99.90;;;;;;5088974;28;20254;-65
2022/01/11 08:59:06;;;;;;;5.30;3.42;;;-0.20;99.90;;;;;;5086507;28;20269;-63
2022/01/11 09:01:34;;;;;;;6.53;4.85;;;-0.20;99.90;;;;;;5088885;28;20348;-64
2022/01/11 09:04:01;;;;;;;10.93;4.82;;;-0.20;99.90;;;;;;5088607;28;20193;-64
2022/01/11 09:06:28;;;;;;;7.25;6.53;;;-0.10;99.90;;;;;;5093019;28;20201;-64
2022/01/11 09:08:54;;;;;;;6.55;6.00;;;-0.10;99.90;;;;;;5100843;28;20228;-63
2022/01/11 09:11:21;;;;;;;6.93;6.10;;;0.00;99.90;;;;;;5102870;28;20291;-64
2022/01/11 09:13:49;;;;;;;7.25;6.57;;;0.00;99.90;;;;;;5101075;28;20205;-64
2022/01/11 09:16:17;;;;;;;7.30;6.55;;;0.00;99.90;;;;;;5092277;28;20236;-64
2022/01/11 09:18:44;;;;;;;13.98;9.85;;;0.00;99.90;;;;;;5096328;28;20208;-64
2022/01/11 09:21:11;;;;;;;9.68;7.22;;;0.10;99.90;;;;;;5098495;28;20233;-63
2022/01/11 09:23:38;;;;;;;10.45;6.82;;;0.10;99.90;;;;;;5104642;28;20200;-64
2022/01/11 09:26:04;;;;;;;5.88;5.38;;;0.20;99.90;;;;;;5102152;28;20204;-64
2022/01/11 09:28:32;;;;;;;8.38;6.65;;;0.30;99.90;;;;;;5107874;28;20286;-62
2022/01/11 09:31:00;;;;;;;13.27;5.43;;;0.20;99.90;;;;;;5096073;28;20217;-65
2022/01/11 09:33:27;;;;;;;10.52;6.80;;;0.20;99.90;;;;;;5109972;28;20688;-63
2022/01/11 09:35:53;;;;;;;10.85;7.47;;;0.10;99.90;;;;;;5103067;28;20193;-65
2022/01/11 09:38:20;;;;;;;9.98;7.68;;;0.20;99.90;;;;;;5096838;28;20407;-63
2022/01/11 09:40:47;;;;;;;5.22;4.55;;;0.20;99.90;;;;;;5111567;28;20917;-63
2022/01/11 09:43:14;;;;;;;10.63;7.22;;;0.30;99.90;;;;;;5104595;28;20192;-63
2022/01/11 09:45:41;;;;;;;12.48;7.95;;;0.30;99.90;;;;;;5088702;28;20208;-63
2022/01/11 09:48:09;;;;;;;9.77;8.43;;;0.40;99.90;;;;;;5097832;28;20215;-62
2022/01/11 09:50:37;;;;;;;9.90;6.47;;;0.40;99.90;;;;;;5097894;28;20278;-67
2022/01/11 09:53:04;;;;;;;6.38;5.65;;;0.40;99.90;;;;;;5092341;28;20256;-63
2022/01/11 09:55:30;;;;;;;7.05;5.20;;;0.40;99.90;;;;;;5104716;28;20196;-64
2022/01/11 09:57:57;;;;;;;11.23;6.78;;;0.40;99.90;;;;;;5092336;28;20678;-65
2022/01/11 10:00:24;;;;;;;8.02;5.38;;;0.40;99.90;;;;;;5089014;28;20741;-63
2022/01/11 10:02:51;;;;;;;6.57;5.80;;;0.40;99.90;;;;;;5093597;28;20208;-62
2022/01/11 10:05:19;;;;;;;8.68;6.18;;;0.40;99.90;;;;;;5099902;28;20324;-63
2022/01/11 10:07:45;;;;;;;6.45;5.90;;;0.40;99.90;;;;;;5095039;28;20262;-64
2022/01/11 10:10:15;;;;;;;11.40;6.90;;;0.40;99.90;;;;;;5096053;28;20217;-64
2022/01/11 10:12:44;;;;;;;13.40;4.75;;;0.50;99.90;;;;;;5087236;28;20193;-65
2022/01/11 10:15:11;;;;;;;13.95;5.57;;;0.60;99.90;;;;;;5081570;28;20273;-62
2022/01/11 10:17:40;;;;;;;9.35;4.78;;;0.70;99.90;;;;;;5084686;28;20196;-63
2022/01/11 10:20:09;;;;;;;11.50;6.65;;;0.60;99.90;;;;;;5080626;28;20202;-64
2022/01/11 10:22:46;;;;;;;13.88;6.70;;;0.70;99.90;;;;;;5086015;28;20262;-62
2022/01/11 10:25:13;;;;;;;11.45;5.53;;;0.70;99.90;;;;;;5090096;28;20234;-63
2022/01/11 10:27:40;;;;;;;5.45;4.85;;;0.80;99.90;;;;;;5088249;28;20591;-63
2022/01/11 10:30:10;;;;;;;9.43;6.45;;;0.90;99.90;;;;;;5090714;28;20356;-63
2022/01/11 10:32:39;;;;;;;7.53;5.90;;;1.00;99.90;;;;;;5093550;28;20632;-63
2022/01/11 10:35:09;;;;;;;7.65;6.40;;;1.10;99.90;;;;;;5090270;28;20743;-63
2022/01/11 10:37:39;;;;;;;9.02;4.38;;;1.10;99.90;;;;;;5088984;28;20243;-64
2022/01/11 10:40:12;;;;;;;8.20;7.38;;;1.30;99.90;;;;;;5090389;28;20556;-65
2022/01/11 10:42:45;;;;;;;9.30;5.70;;;1.30;99.90;;;;;;5092191;28;20197;-64
2022/01/11 10:45:13;;;;;;;5.50;5.00;;;1.50;99.90;;;;;;5102928;22;20224;-67
2022/01/11 10:47:42;;;;;;;6.72;5.78;;;1.50;99.90;;;;;;5077704;28;20201;-67
2022/01/11 10:50:12;;;;;;;6.03;4.72;;;1.40;99.90;;;;;;5086822;28;20718;-67
2022/01/11 10:52:42;;;;;;;6.82;6.18;;;1.30;99.90;;;;;;5082557;28;20217;-67
2022/01/11 10:55:14;;;;;;;8.35;6.13;;;1.30;99.90;;;;;;5077218;28;20223;-66
2022/01/11 10:57:41;;;;;;;7.70;6.03;;;1.40;99.90;;;;;;5075813;28;20307;-66
2022/01/11 11:00:22;;;;;;;11.82;7.30;;;1.40;99.90;;;;;;5076296;28;20316;-67
2022/01/11 11:02:53;;;;;;;12.38;6.05;;;1.50;99.90;;;;;;5073901;28;20200;-67
2022/01/11 11:05:24;;;;;;;5.22;4.68;;;1.60;99.90;;;;;;5067127;28;20363;-67
2022/01/11 11:07:58;;;;;;;7.40;6.00;;;1.70;99.90;;;;;;5074185;28;20424;-66
2022/01/11 11:10:43;;;;;;;8.43;5.90;;;1.80;99.90;;;;;;5078770;28;20407;-67
2022/01/11 11:13:16;;;;;;;10.82;7.47;;;1.80;99.90;;;;;;5078644;28;20208;-66
2022/01/11 11:15:43;;;;;;;8.85;6.30;;;1.90;99.90;;;;;;5067963;28;20565;-66
2022/01/11 11:18:24;;;;;;;6.35;4.95;;;1.80;99.90;;;;;;5078724;28;20301;-66
2022/01/11 11:20:51;;;;;;;9.23;6.40;;;1.90;99.90;;;;;;5087740;28;20209;-66
2022/01/11 11:23:19;;;;;;;7.32;6.20;;;1.90;99.90;;;;;;5087666;28;20201;-68
2022/01/11 11:25:46;;;;;;;5.10;4.57;;;1.90;99.90;;;;;;5081767;28;20251;-66
2022/01/11 11:28:13;;;;;;;8.73;6.80;;;1.90;99.90;;;;;;5086282;28;20201;-67
2022/01/11 11:30:40;;;;;;;12.00;8.70;;;1.80;99.90;;;;;;5081973;28;20216;-66
2022/01/11 11:33:07;;;;;;;6.80;4.68;;;1.80;99.90;;;;;;5073056;28;20890;-67
2022/01/11 11:35:33;;;;;;;12.73;4.40;;;1.90;99.90;;;;;;5083912;28;20664;-66
2022/01/11 11:38:03;;;;;;;6.25;5.35;;;2.00;99.90;;;;;;5075662;28;20703;-66
2022/01/11 11:40:32;;;;;;;7.38;5.53;;;2.20;99.90;;;;;;5082698;28;20201;-65
2022/01/11 11:43:02;;;;;;;8.20;4.47;;;2.50;99.90;;;;;;5078622;28;20200;-67
2022/01/11 11:45:33;;;;;;;9.25;7.47;;;2.80;99.90;;;;;;5072045;28;20244;-66
2022/01/11 11:48:05;;;;;;;8.05;5.15;;;3.00;99.90;;;;;;5084789;28;20201;-65
2022/01/11 11:50:32;;;;;;;11.02;5.75;;;3.20;99.90;;;;;;5080805;28;20651;-65
2022/01/11 11:52:58;;;;;;;12.65;5.60;;;3.50;99.90;;;;;;5092929;28;20266;-68
2022/01/11 11:55:28;;;;;;;7.18;6.40;;;3.90;99.90;;;;;;5093051;28;20238;-67
2022/01/11 11:57:58;;;;;;;14.00;5.70;;;4.10;99.90;;;;;;5093822;28;20659;-66
2022/01/11 12:00:27;;;;;;;9.18;7.20;;;4.40;99.90;;;;;;5086913;28;20609;-65
2022/01/11 12:02:55;;;;;;;10.55;6.05;;;4.60;99.90;;;;;;5091680;28;20213;-65
2022/01/11 12:05:37;;;;;;;9.27;5.20;;;4.90;99.90;;;;;;5078142;28;20263;-65
2022/01/11 12:08:32;;;;;;;8.00;5.05;;;5.20;99.90;;;;;;5081353;28;20662;-64
2022/01/11 12:11:02;;;;;;;8.25;6.03;;;5.50;99.90;;;;;;5066707;28;20343;-67
2022/01/11 12:13:42;;;;;;;13.73;5.88;;;5.60;99.90;;;;;;5079960;28;20205;-65
2022/01/11 12:16:43;;;;;;;6.10;5.15;;;5.80;99.90;;;;;;5072114;28;20235;-68
2022/01/11 12:19:13;;;;;;;6.30;5.60;;;5.90;99.90;;;;;;5080803;28;20213;-66
2022/01/11 12:21:43;;;;;;;7.23;5.73;;;6.30;99.90;;;;;;5067447;28;20263;-67
2022/01/11 12:24:11;;;;;;;5.90;5.17;;;6.80;99.90;;;;;;5066703;28;20478;-67
2022/01/11 12:26:38;;;;;;;6.67;4.50;;;7.00;99.90;;;;;;5071969;28;20466;-67
2022/01/11 12:29:27;;;;;;;12.93;5.70;;;7.10;99.90;;;;;;5081632;28;20506;-66
2022/01/11 12:31:56;;;;;;;7.83;4.73;;;7.20;99.90;;;;;;5076636;28;20626;-66
2022/01/11 12:34:49;;;;;;;8.40;5.70;;;7.40;99.90;;;;;;5071370;28;20489;-63
2022/01/11 12:37:36;;;;;;;11.30;4.90;;;7.70;99.90;;;;;;5072567;28;20462;-66
2022/01/11 12:40:23;;;;;;;7.57;5.53;;;7.80;99.90;;;;;;5060810;28;20463;-65
2022/01/11 12:42:53;;;;;;;5.97;5.23;;;8.00;99.90;;;;;;5073485;28;20943;-68
2022/01/11 12:45:59;;;;;;;4.27;3.80;;;8.10;99.90;;;;;;5074276;28;20545;-68
2022/01/11 12:49:06;;;;;;;5.40;4.53;;;8.40;99.90;;;;;;5070932;28;20476;-68
2022/01/11 12:51:49;;;;;;;6.13;4.50;;;8.90;99.90;;;;;;5070341;28;20510;-67
2022/01/11 12:54:29;;;;;;;6.10;3.97;;;9.30;99.90;;;;;;5075693;28;20467;-69
2022/01/11 12:56:58;;;;;;;7.03;5.38;;;9.30;99.90;;;;;;5076742;28;20452;-68